sensor_id;sensor_type;location;lat;lon;timestamp;temperature;humidity
3275;DHT22;1649;53.672;10.064;2022-08-30T00:00:17;16.20;99.90
3275;DHT22;1649;53.672;10.064;2022-08-30T00:03:03;16.30;99.90
3275;DHT22;1649;53.672;10.064;2022-08-30T00:05:29;16.20;99.90
3275;DHT22;1649;53.672;10.064;2022-08-30T00:07:56;16.20;99.90
3275;DHT22;1649;53.672;10.064;2022-08-30T00:10:23;16.20;99.90
3275;DHT22;1649;53.672;10.064;2022-08-30T00:12:49;16.20;99.90
3275;DHT22;1649;53.672;10.064;2022-08-30T00:15:16;16.10;99.90
3275;DHT22;1649;53.672;10.064;2022-08-30T00:17:42;16.20;99.90
3275;DHT22;1649;53.672;10.064;2022-08-30T00:20:12;16.00;99.90
3275;DHT22;1649;53.672;10.064;2022-08-30T00:22:39;16.00;99.90
3275;DHT22;1649;53.672;10.064;2022-08-30T00:25:06;16.00;99.90
3275;DHT22;1649;53.672;10.064;2022-08-30T00:27:32;15.80;99.90
3275;DHT22;1649;53.672;10.064;2022-08-30T00:29:57;15.80;99.90
3275;DHT22;1649;53.672;10.064;2022-08-30T00:32:23;15.70;99.90
3275;DHT22;1649;53.672;10.064;2022-08-30T00:34:52;15.70;99.90
3275;DHT22;1649;53.672;10.064;2022-08-30T00:37:19;15.70;99.90
3275;DHT22;1649;53.672;10.064;2022-08-30T00:39:45;15.70;99.90
3275;DHT22;1649;53.672;10.064;2022-08-30T00:42:12;15.70;99.90
3275;DHT22;1649;53.672;10.064;2022-08-30T00:44:39;15.70;99.90
3275;DHT22;1649;53.672;10.064;2022-08-30T00:47:05;15.60;99.90
3275;DHT22;1649;53.672;10.064;2022-08-30T00:49:32;15.70;99.90
3275;DHT22;1649;53.672;10.064;2022-08-30T00:51:58;15.60;99.90
3275;DHT22;1649;53.672;10.064;2022-08-30T00:54:25;15.60;99.90
3275;DHT22;1649;53.672;10.064;2022-08-30T00:56:51;15.50;99.90
3275;DHT22;1649;53.672;10.064;2022-08-30T00:59:17;15.50;99.90
3275;DHT22;1649;53.672;10.064;2022-08-30T01:01:43;15.50;99.90
3275;DHT22;1649;53.672;10.064;2022-08-30T01:04:10;15.50;99.90
3275;DHT22;1649;53.672;10.064;2022-08-30T01:06:36;15.40;99.90
3275;DHT22;1649;53.672;10.064;2022-08-30T01:09:04;15.50;99.90
3275;DHT22;1649;53.672;10.064;2022-08-30T01:11:32;15.40;99.90
3275;DHT22;1649;53.672;10.064;2022-08-30T01:14:00;15.40;99.90
3275;DHT22;1649;53.672;10.064;2022-08-30T01:16:26;15.40;99.90
3275;DHT22;1649;53.672;10.064;2022-08-30T01:18:55;15.50;99.90
3275;DHT22;1649;53.672;10.064;2022-08-30T01:21:47;15.50;99.90
3275;DHT22;1649;53.672;10.064;2022-08-30T01:24:14;15.50;99.90
3275;DHT22;1649;53.672;10.064;2022-08-30T01:26:40;15.50;99.90
3275;DHT22;1649;53.672;10.064;2022-08-30T01:29:09;15.50;99.90
3275;DHT22;1649;53.672;10.064;2022-08-30T01:31:35;15.50;99.90
3275;DHT22;1649;53.672;10.064;2022-08-30T01:34:02;15.50;99.90
3275;DHT22;1649;53.672;10.064;2022-08-30T01:36:28;15.50;99.90
3275;DHT22;1649;53.672;10.064;2022-08-30T01:38:56;15.50;99.90
3275;DHT22;1649;53.672;10.064;2022-08-30T01:43:51;15.60;99.90
3275;DHT22;1649;53.672;10.064;2022-08-30T01:46:19;15.60;99.90
3275;DHT22;1649;53.672;10.064;2022-08-30T01:48:45;15.60;99.90
3275;DHT22;1649;53.672;10.064;2022-08-30T01:51:12;15.60;99.90
3275;DHT22;1649;53.672;10.064;2022-08-30T01:53:40;15.60;99.90
3275;DHT22;1649;53.672;10.064;2022-08-30T01:56:06;15.60;99.90
3275;DHT22;1649;53.672;10.064;2022-08-30T01:58:33;15.70;99.90
3275;DHT22;1649;53.672;10.064;2022-08-30T02:00:59;15.70;99.90
3275;DHT22;1649;53.672;10.064;2022-08-30T02:03:24;15.70;99.90
3275;DHT22;1649;53.672;10.064;2022-08-30T02:05:54;15.70;99.90
3275;DHT22;1649;53.672;10.064;2022-08-30T02:08:20;15.70;99.90
3275;DHT22;1649;53.672;10.064;2022-08-30T02:10:46;15.70;99.90
3275;DHT22;1649;53.672;10.064;2022-08-30T02:13:11;15.60;99.90
3275;DHT22;1649;53.672;10.064;2022-08-30T02:15:37;15.60;99.90
3275;DHT22;1649;53.672;10.064;2022-08-30T02:18:02;15.60;99.90
3275;DHT22;1649;53.672;10.064;2022-08-30T02:20:28;15.60;99.90
3275;DHT22;1649;53.672;10.064;2022-08-30T02:22:53;15.60;99.90
3275;DHT22;1649;53.672;10.064;2022-08-30T02:25:19;15.60;99.90
3275;DHT22;1649;53.672;10.064;2022-08-30T02:27:45;15.60;99.90
3275;DHT22;1649;53.672;10.064;2022-08-30T02:30:11;15.60;99.90
3275;DHT22;1649;53.672;10.064;2022-08-30T02:32:36;15.50;99.90
3275;DHT22;1649;53.672;10.064;2022-08-30T02:35:02;15.60;99.90
3275;DHT22;1649;53.672;10.064;2022-08-30T02:37:28;15.50;99.90
3275;DHT22;1649;53.672;10.064;2022-08-30T02:39:53;15.50;99.90
3275;DHT22;1649;53.672;10.064;2022-08-30T02:42:19;15.50;99.90
3275;DHT22;1649;53.672;10.064;2022-08-30T02:44:44;15.50;99.90
3275;DHT22;1649;53.672;10.064;2022-08-30T02:47:10;15.50;99.90
3275;DHT22;1649;53.672;10.064;2022-08-30T02:49:36;15.50;99.90
3275;DHT22;1649;53.672;10.064;2022-08-30T02:52:03;15.60;99.90
3275;DHT22;1649;53.672;10.064;2022-08-30T02:54:29;15.60;99.90
3275;DHT22;1649;53.672;10.064;2022-08-30T02:56:57;15.60;99.90
3275;DHT22;1649;53.672;10.064;2022-08-30T02:59:23;15.60;99.90
3275;DHT22;1649;53.672;10.064;2022-08-30T03:01:48;15.60;99.90
3275;DHT22;1649;53.672;10.064;2022-08-30T03:04:14;15.60;99.90
3275;DHT22;1649;53.672;10.064;2022-08-30T03:06:39;15.60;99.90
3275;DHT22;1649;53.672;10.064;2022-08-30T03:09:05;15.60;99.90
3275;DHT22;1649;53.672;10.064;2022-08-30T03:11:30;15.50;99.90
3275;DHT22;1649;53.672;10.064;2022-08-30T03:13:56;15.50;99.90
3275;DHT22;1649;53.672;10.064;2022-08-30T03:16:21;15.50;99.90
3275;DHT22;1649;53.672;10.064;2022-08-30T03:18:47;15.50;99.90
3275;DHT22;1649;53.672;10.064;2022-08-30T03:21:14;15.60;99.90
3275;DHT22;1649;53.672;10.064;2022-08-30T03:23:40;15.60;99.90
3275;DHT22;1649;53.672;10.064;2022-08-30T03:26:07;15.60;99.90
3275;DHT22;1649;53.672;10.064;2022-08-30T03:28:33;15.60;99.90
3275;DHT22;1649;53.672;10.064;2022-08-30T03:30:58;15.60;99.90
3275;DHT22;1649;53.672;10.064;2022-08-30T03:33:24;15.60;99.90
3275;DHT22;1649;53.672;10.064;2022-08-30T03:35:50;15.70;99.90
3275;DHT22;1649;53.672;10.064;2022-08-30T03:38:15;15.70;99.90
3275;DHT22;1649;53.672;10.064;2022-08-30T03:40:41;15.70;99.90
3275;DHT22;1649;53.672;10.064;2022-08-30T03:43:07;15.70;99.90
3275;DHT22;1649;53.672;10.064;2022-08-30T03:45:33;15.80;99.90
3275;DHT22;1649;53.672;10.064;2022-08-30T03:47:59;15.70;99.90
3275;DHT22;1649;53.672;10.064;2022-08-30T03:50:27;15.70;99.90
3275;DHT22;1649;53.672;10.064;2022-08-30T03:52:53;15.70;99.90
3275;DHT22;1649;53.672;10.064;2022-08-30T03:55:19;15.70;99.90
3275;DHT22;1649;53.672;10.064;2022-08-30T03:57:45;15.60;99.90
3275;DHT22;1649;53.672;10.064;2022-08-30T04:00:12;15.60;99.90
3275;DHT22;1649;53.672;10.064;2022-08-30T04:02:38;15.60;99.90
3275;DHT22;1649;53.672;10.064;2022-08-30T04:05:04;15.70;99.90
3275;DHT22;1649;53.672;10.064;2022-08-30T04:07:30;15.60;99.90
3275;DHT22;1649;53.672;10.064;2022-08-30T04:09:56;15.60;99.90
3275;DHT22;1649;53.672;10.064;2022-08-30T04:12:21;15.60;99.90
3275;DHT22;1649;53.672;10.064;2022-08-30T04:14:47;15.60;99.90
3275;DHT22;1649;53.672;10.064;2022-08-30T04:17:12;15.60;99.90
3275;DHT22;1649;53.672;10.064;2022-08-30T04:19:38;15.40;99.90
3275;DHT22;1649;53.672;10.064;2022-08-30T04:22:03;15.40;99.90
3275;DHT22;1649;53.672;10.064;2022-08-30T04:24:30;15.40;99.90
3275;DHT22;1649;53.672;10.064;2022-08-30T04:26:55;15.40;99.90
3275;DHT22;1649;53.672;10.064;2022-08-30T04:29:21;15.40;99.90
3275;DHT22;1649;53.672;10.064;2022-08-30T04:31:46;15.40;99.90
3275;DHT22;1649;53.672;10.064;2022-08-30T04:34:12;15.40;99.90
3275;DHT22;1649;53.672;10.064;2022-08-30T04:36:38;15.50;99.90
3275;DHT22;1649;53.672;10.064;2022-08-30T04:39:05;15.50;99.90
3275;DHT22;1649;53.672;10.064;2022-08-30T04:41:30;15.40;99.90
3275;DHT22;1649;53.672;10.064;2022-08-30T04:43:56;15.40;99.90
3275;DHT22;1649;53.672;10.064;2022-08-30T04:46:21;15.40;99.90
3275;DHT22;1649;53.672;10.064;2022-08-30T04:48:48;15.40;99.90
3275;DHT22;1649;53.672;10.064;2022-08-30T04:51:15;15.40;99.90
3275;DHT22;1649;53.672;10.064;2022-08-30T04:53:43;15.50;99.90
3275;DHT22;1649;53.672;10.064;2022-08-30T04:56:11;15.50;99.90
3275;DHT22;1649;53.672;10.064;2022-08-30T04:58:37;15.60;99.90
3275;DHT22;1649;53.672;10.064;2022-08-30T05:01:03;15.50;99.90
3275;DHT22;1649;53.672;10.064;2022-08-30T05:03:29;15.50;99.90
3275;DHT22;1649;53.672;10.064;2022-08-30T05:05:54;15.60;99.90
3275;DHT22;1649;53.672;10.064;2022-08-30T05:08:21;15.60;99.90
3275;DHT22;1649;53.672;10.064;2022-08-30T05:10:49;15.60;99.90
3275;DHT22;1649;53.672;10.064;2022-08-30T05:13:17;15.60;99.90
3275;DHT22;1649;53.672;10.064;2022-08-30T05:15:44;15.70;99.90
3275;DHT22;1649;53.672;10.064;2022-08-30T05:18:11;15.60;99.90
3275;DHT22;1649;53.672;10.064;2022-08-30T05:20:37;15.70;99.90
3275;DHT22;1649;53.672;10.064;2022-08-30T05:23:04;15.80;99.90
3275;DHT22;1649;53.672;10.064;2022-08-30T05:25:32;15.80;99.90
3275;DHT22;1649;53.672;10.064;2022-08-30T05:27:58;15.80;99.90
3275;DHT22;1649;53.672;10.064;2022-08-30T05:30:25;15.80;99.90
3275;DHT22;1649;53.672;10.064;2022-08-30T05:32:51;15.80;99.90
3275;DHT22;1649;53.672;10.064;2022-08-30T05:35:19;15.70;99.90
3275;DHT22;1649;53.672;10.064;2022-08-30T05:37:44;15.80;99.90
3275;DHT22;1649;53.672;10.064;2022-08-30T05:40:11;15.80;99.90
3275;DHT22;1649;53.672;10.064;2022-08-30T05:42:38;15.80;99.90
3275;DHT22;1649;53.672;10.064;2022-08-30T05:45:06;15.90;99.90
3275;DHT22;1649;53.672;10.064;2022-08-30T05:47:31;15.90;99.90
3275;DHT22;1649;53.672;10.064;2022-08-30T05:49:57;15.90;99.90
3275;DHT22;1649;53.672;10.064;2022-08-30T05:52:22;16.00;99.90
3275;DHT22;1649;53.672;10.064;2022-08-30T05:54:54;16.00;99.90
3275;DHT22;1649;53.672;10.064;2022-08-30T05:57:20;16.10;99.90
3275;DHT22;1649;53.672;10.064;2022-08-30T05:59:46;16.10;99.90
3275;DHT22;1649;53.672;10.064;2022-08-30T06:02:11;16.20;99.90
3275;DHT22;1649;53.672;10.064;2022-08-30T06:04:37;16.30;99.90
3275;DHT22;1649;53.672;10.064;2022-08-30T06:07:02;16.40;99.90
3275;DHT22;1649;53.672;10.064;2022-08-30T06:09:28;16.50;99.90
3275;DHT22;1649;53.672;10.064;2022-08-30T06:11:54;16.60;99.90
3275;DHT22;1649;53.672;10.064;2022-08-30T06:14:19;16.60;99.90
3275;DHT22;1649;53.672;10.064;2022-08-30T06:16:45;16.70;99.90
3275;DHT22;1649;53.672;10.064;2022-08-30T06:19:12;16.90;99.90
3275;DHT22;1649;53.672;10.064;2022-08-30T06:21:39;17.10;99.90
3275;DHT22;1649;53.672;10.064;2022-08-30T06:24:07;17.40;99.90
3275;DHT22;1649;53.672;10.064;2022-08-30T06:26:36;17.90;99.90
3275;DHT22;1649;53.672;10.064;2022-08-30T06:29:02;18.10;99.90
3275;DHT22;1649;53.672;10.064;2022-08-30T06:31:27;18.40;99.90
3275;DHT22;1649;53.672;10.064;2022-08-30T06:33:53;18.50;99.90
3275;DHT22;1649;53.672;10.064;2022-08-30T06:36:22;18.40;99.90
3275;DHT22;1649;53.672;10.064;2022-08-30T06:38:54;18.20;99.90
3275;DHT22;1649;53.672;10.064;2022-08-30T06:41:24;18.30;99.90
3275;DHT22;1649;53.672;10.064;2022-08-30T06:43:50;18.50;99.90
3275;DHT22;1649;53.672;10.064;2022-08-30T06:46:18;18.60;99.90
3275;DHT22;1649;53.672;10.064;2022-08-30T06:48:44;18.60;99.90
3275;DHT22;1649;53.672;10.064;2022-08-30T06:51:10;19.00;99.90
3275;DHT22;1649;53.672;10.064;2022-08-30T06:53:35;19.30;99.90
3275;DHT22;1649;53.672;10.064;2022-08-30T06:56:04;19.30;99.90
3275;DHT22;1649;53.672;10.064;2022-08-30T06:58:32;19.30;99.90
3275;DHT22;1649;53.672;10.064;2022-08-30T07:00:57;19.30;99.90
3275;DHT22;1649;53.672;10.064;2022-08-30T07:03:23;19.20;99.90
3275;DHT22;1649;53.672;10.064;2022-08-30T07:05:52;19.10;99.90
3275;DHT22;1649;53.672;10.064;2022-08-30T07:08:18;19.00;99.90
3275;DHT22;1649;53.672;10.064;2022-08-30T07:10:44;18.80;99.90
3275;DHT22;1649;53.672;10.064;2022-08-30T07:13:10;18.60;99.90
3275;DHT22;1649;53.672;10.064;2022-08-30T07:15:40;18.50;99.90
3275;DHT22;1649;53.672;10.064;2022-08-30T07:18:06;18.60;99.90
3275;DHT22;1649;53.672;10.064;2022-08-30T07:20:50;18.70;99.90
3275;DHT22;1649;53.672;10.064;2022-08-30T07:23:15;18.80;99.90
3275;DHT22;1649;53.672;10.064;2022-08-30T07:25:41;18.80;99.90
3275;DHT22;1649;53.672;10.064;2022-08-30T07:28:07;18.70;99.90
3275;DHT22;1649;53.672;10.064;2022-08-30T07:30:33;18.70;99.90
3275;DHT22;1649;53.672;10.064;2022-08-30T07:32:59;18.70;99.90
3275;DHT22;1649;53.672;10.064;2022-08-30T07:35:25;18.60;99.90
3275;DHT22;1649;53.672;10.064;2022-08-30T07:37:50;18.60;99.90
3275;DHT22;1649;53.672;10.064;2022-08-30T07:40:16;18.70;99.90
3275;DHT22;1649;53.672;10.064;2022-08-30T07:42:42;18.80;99.90
3275;DHT22;1649;53.672;10.064;2022-08-30T07:45:08;18.80;99.90
3275;DHT22;1649;53.672;10.064;2022-08-30T07:47:34;18.90;99.90
3275;DHT22;1649;53.672;10.064;2022-08-30T07:50:00;19.00;99.90
3275;DHT22;1649;53.672;10.064;2022-08-30T07:52:26;19.20;99.90
3275;DHT22;1649;53.672;10.064;2022-08-30T07:54:56;19.10;99.90
3275;DHT22;1649;53.672;10.064;2022-08-30T07:57:22;19.20;99.90
3275;DHT22;1649;53.672;10.064;2022-08-30T07:59:47;19.30;99.90
3275;DHT22;1649;53.672;10.064;2022-08-30T08:02:13;19.30;99.90
3275;DHT22;1649;53.672;10.064;2022-08-30T08:04:38;19.30;99.90
3275;DHT22;1649;53.672;10.064;2022-08-30T08:07:04;19.40;99.90
3275;DHT22;1649;53.672;10.064;2022-08-30T08:09:30;19.50;99.90
3275;DHT22;1649;53.672;10.064;2022-08-30T08:11:55;19.40;99.90
3275;DHT22;1649;53.672;10.064;2022-08-30T08:14:21;19.40;99.90
3275;DHT22;1649;53.672;10.064;2022-08-30T08:16:48;19.40;99.90
3275;DHT22;1649;53.672;10.064;2022-08-30T08:19:13;19.50;99.90
3275;DHT22;1649;53.672;10.064;2022-08-30T08:21:39;19.50;99.90
3275;DHT22;1649;53.672;10.064;2022-08-30T08:24:05;19.40;99.90
3275;DHT22;1649;53.672;10.064;2022-08-30T08:26:36;19.50;99.90
3275;DHT22;1649;53.672;10.064;2022-08-30T08:29:03;19.60;99.90
3275;DHT22;1649;53.672;10.064;2022-08-30T08:31:29;19.60;99.90
3275;DHT22;1649;53.672;10.064;2022-08-30T08:33:55;19.70;99.90
3275;DHT22;1649;53.672;10.064;2022-08-30T08:36:23;19.70;99.90
3275;DHT22;1649;53.672;10.064;2022-08-30T08:38:48;19.60;99.90
3275;DHT22;1649;53.672;10.064;2022-08-30T08:41:48;19.60;99.90
3275;DHT22;1649;53.672;10.064;2022-08-30T08:44:38;19.30;99.90
3275;DHT22;1649;53.672;10.064;2022-08-30T08:47:15;19.30;99.90
3275;DHT22;1649;53.672;10.064;2022-08-30T08:49:43;19.40;99.90
3275;DHT22;1649;53.672;10.064;2022-08-30T08:52:17;19.40;99.90
3275;DHT22;1649;53.672;10.064;2022-08-30T08:55:09;19.40;99.90
3275;DHT22;1649;53.672;10.064;2022-08-30T08:57:36;19.50;99.90
3275;DHT22;1649;53.672;10.064;2022-08-30T09:00:05;19.60;99.90
3275;DHT22;1649;53.672;10.064;2022-08-30T09:02:51;19.70;99.90
3275;DHT22;1649;53.672;10.064;2022-08-30T09:05:20;19.80;99.90
3275;DHT22;1649;53.672;10.064;2022-08-30T09:07:49;19.90;99.90
3275;DHT22;1649;53.672;10.064;2022-08-30T09:10:16;19.80;99.90
3275;DHT22;1649;53.672;10.064;2022-08-30T09:12:42;19.80;99.90
3275;DHT22;1649;53.672;10.064;2022-08-30T09:15:29;19.90;99.90
3275;DHT22;1649;53.672;10.064;2022-08-30T09:18:02;20.10;99.90
3275;DHT22;1649;53.672;10.064;2022-08-30T09:20:40;20.40;99.90
3275;DHT22;1649;53.672;10.064;2022-08-30T09:23:21;20.60;99.90
3275;DHT22;1649;53.672;10.064;2022-08-30T09:25:55;20.80;99.90
3275;DHT22;1649;53.672;10.064;2022-08-30T09:34:00;20.50;99.90
3275;DHT22;1649;53.672;10.064;2022-08-30T09:36:39;20.40;99.90
3275;DHT22;1649;53.672;10.064;2022-08-30T09:39:13;20.30;99.90
3275;DHT22;1649;53.672;10.064;2022-08-30T09:41:42;20.30;99.90
3275;DHT22;1649;53.672;10.064;2022-08-30T09:46:56;20.50;99.90
3275;DHT22;1649;53.672;10.064;2022-08-30T09:49:35;20.70;99.90
3275;DHT22;1649;53.672;10.064;2022-08-30T09:52:17;20.80;99.90
3275;DHT22;1649;53.672;10.064;2022-08-30T09:54:58;21.30;99.90
3275;DHT22;1649;53.672;10.064;2022-08-30T10:00:13;21.80;99.90
3275;DHT22;1649;53.672;10.064;2022-08-30T10:02:47;22.10;99.90
3275;DHT22;1649;53.672;10.064;2022-08-30T10:05:31;22.40;99.90
3275;DHT22;1649;53.672;10.064;2022-08-30T10:10:48;22.60;99.90
3275;DHT22;1649;53.672;10.064;2022-08-30T10:13:34;22.30;99.90
3275;DHT22;1649;53.672;10.064;2022-08-30T10:16:14;22.60;99.90
3275;DHT22;1649;53.672;10.064;2022-08-30T10:19:09;22.80;99.90
3275;DHT22;1649;53.672;10.064;2022-08-30T10:21:51;23.00;99.90
3275;DHT22;1649;53.672;10.064;2022-08-30T10:24:23;22.60;99.90
3275;DHT22;1649;53.672;10.064;2022-08-30T10:26:59;22.40;99.90
3275;DHT22;1649;53.672;10.064;2022-08-30T10:29:39;22.20;99.90
3275;DHT22;1649;53.672;10.064;2022-08-30T10:32:14;21.80;99.90
3275;DHT22;1649;53.672;10.064;2022-08-30T10:34:46;21.40;99.90
3275;DHT22;1649;53.672;10.064;2022-08-30T10:37:16;20.90;99.90
3275;DHT22;1649;53.672;10.064;2022-08-30T10:39:48;20.70;99.90
3275;DHT22;1649;53.672;10.064;2022-08-30T10:42:27;20.70;99.90
3275;DHT22;1649;53.672;10.064;2022-08-30T10:45:03;20.60;99.90
3275;DHT22;1649;53.672;10.064;2022-08-30T10:47:39;20.60;99.90
3275;DHT22;1649;53.672;10.064;2022-08-30T10:50:13;20.70;99.90
3275;DHT22;1649;53.672;10.064;2022-08-30T10:52:41;20.70;99.90
3275;DHT22;1649;53.672;10.064;2022-08-30T10:55:18;20.80;99.90
3275;DHT22;1649;53.672;10.064;2022-08-30T10:57:46;21.10;99.90
3275;DHT22;1649;53.672;10.064;2022-08-30T11:00:15;21.20;99.90
3275;DHT22;1649;53.672;10.064;2022-08-30T11:03:15;21.30;99.90
3275;DHT22;1649;53.672;10.064;2022-08-30T11:09:00;21.50;99.90
3275;DHT22;1649;53.672;10.064;2022-08-30T11:14:16;21.90;99.90
3275;DHT22;1649;53.672;10.064;2022-08-30T11:16:46;21.90;99.90
3275;DHT22;1649;53.672;10.064;2022-08-30T11:19:26;22.20;99.90
3275;DHT22;1649;53.672;10.064;2022-08-30T11:22:09;22.60;99.90
3275;DHT22;1649;53.672;10.064;2022-08-30T11:25:12;23.20;99.90
3275;DHT22;1649;53.672;10.064;2022-08-30T11:27:54;23.40;99.90
3275;DHT22;1649;53.672;10.064;2022-08-30T11:35:47;22.40;99.90
3275;DHT22;1649;53.672;10.064;2022-08-30T11:40:49;22.00;99.90
3275;DHT22;1649;53.672;10.064;2022-08-30T11:49:05;21.90;99.90
3275;DHT22;1649;53.672;10.064;2022-08-30T11:54:29;22.40;99.90
3275;DHT22;1649;53.672;10.064;2022-08-30T12:00:02;22.90;99.80
3275;DHT22;1649;53.672;10.064;2022-08-30T12:05:50;23.20;99.90
3275;DHT22;1649;53.672;10.064;2022-08-30T12:16:08;23.60;98.40
3275;DHT22;1649;53.672;10.064;2022-08-30T12:18:52;23.60;97.60
3275;DHT22;1649;53.672;10.064;2022-08-30T12:23:57;23.60;97.30
3275;DHT22;1649;53.672;10.064;2022-08-30T12:28:52;23.70;96.80
3275;DHT22;1649;53.672;10.064;2022-08-30T12:31:21;23.90;96.50
3275;DHT22;1649;53.672;10.064;2022-08-30T12:33:58;24.10;97.00
3275;DHT22;1649;53.672;10.064;2022-08-30T12:39:16;24.30;95.70
3275;DHT22;1649;53.672;10.064;2022-08-30T12:41:43;24.50;95.30
3275;DHT22;1649;53.672;10.064;2022-08-30T12:44:14;24.40;94.90
3275;DHT22;1649;53.672;10.064;2022-08-30T12:46:42;24.20;94.70
3275;DHT22;1649;53.672;10.064;2022-08-30T12:49:08;23.90;95.10
3275;DHT22;1649;53.672;10.064;2022-08-30T12:51:38;23.80;95.10
3275;DHT22;1649;53.672;10.064;2022-08-30T12:54:08;23.80;94.60
3275;DHT22;1649;53.672;10.064;2022-08-30T13:00:03;23.90;93.70
3275;DHT22;1649;53.672;10.064;2022-08-30T13:05:42;22.80;94.60
3275;DHT22;1649;53.672;10.064;2022-08-30T13:08:18;22.40;95.50
3275;DHT22;1649;53.672;10.064;2022-08-30T13:10:54;22.30;95.40
3275;DHT22;1649;53.672;10.064;2022-08-30T13:13:43;22.20;95.30
3275;DHT22;1649;53.672;10.064;2022-08-30T13:16:35;22.40;96.00
3275;DHT22;1649;53.672;10.064;2022-08-30T13:19:39;22.50;94.80
3275;DHT22;1649;53.672;10.064;2022-08-30T13:22:21;22.40;94.30
3275;DHT22;1649;53.672;10.064;2022-08-30T13:24:50;22.50;94.50
3275;DHT22;1649;53.672;10.064;2022-08-30T13:27:15;22.70;94.20
3275;DHT22;1649;53.672;10.064;2022-08-30T13:29:41;22.90;94.10
3275;DHT22;1649;53.672;10.064;2022-08-30T13:32:06;22.90;93.60
3275;DHT22;1649;53.672;10.064;2022-08-30T13:34:32;22.90;93.50
3275;DHT22;1649;53.672;10.064;2022-08-30T13:36:59;23.10;93.60
3275;DHT22;1649;53.672;10.064;2022-08-30T13:39:26;23.00;93.20
3275;DHT22;1649;53.672;10.064;2022-08-30T13:41:52;23.10;93.20
3275;DHT22;1649;53.672;10.064;2022-08-30T13:44:18;23.00;92.70
3275;DHT22;1649;53.672;10.064;2022-08-30T13:46:48;23.00;93.20
3275;DHT22;1649;53.672;10.064;2022-08-30T13:49:30;22.90;93.20
3275;DHT22;1649;53.672;10.064;2022-08-30T13:51:55;22.80;92.90
3275;DHT22;1649;53.672;10.064;2022-08-30T13:54:22;22.90;93.30
3275;DHT22;1649;53.672;10.064;2022-08-30T13:56:49;23.30;93.80
3275;DHT22;1649;53.672;10.064;2022-08-30T13:59:14;23.30;93.20
3275;DHT22;1649;53.672;10.064;2022-08-30T14:01:40;22.90;93.40
3275;DHT22;1649;53.672;10.064;2022-08-30T14:04:06;22.70;93.60
3275;DHT22;1649;53.672;10.064;2022-08-30T14:06:31;22.70;94.00
3275;DHT22;1649;53.672;10.064;2022-08-30T14:08:57;22.70;93.50
3275;DHT22;1649;53.672;10.064;2022-08-30T14:11:22;22.80;93.50
3275;DHT22;1649;53.672;10.064;2022-08-30T14:13:49;22.90;93.70
3275;DHT22;1649;53.672;10.064;2022-08-30T14:16:15;22.90;93.40
3275;DHT22;1649;53.672;10.064;2022-08-30T14:18:40;23.10;93.60
3275;DHT22;1649;53.672;10.064;2022-08-30T14:21:06;22.90;93.30
3275;DHT22;1649;53.672;10.064;2022-08-30T14:23:31;23.10;93.60
3275;DHT22;1649;53.672;10.064;2022-08-30T14:25:57;23.10;93.50
3275;DHT22;1649;53.672;10.064;2022-08-30T14:28:25;22.90;93.80
3275;DHT22;1649;53.672;10.064;2022-08-30T14:30:52;22.70;94.40
3275;DHT22;1649;53.672;10.064;2022-08-30T14:33:18;22.40;94.10
3275;DHT22;1649;53.672;10.064;2022-08-30T14:35:43;22.20;94.30
3275;DHT22;1649;53.672;10.064;2022-08-30T14:38:09;21.80;94.90
3275;DHT22;1649;53.672;10.064;2022-08-30T14:40:34;21.50;94.90
3275;DHT22;1649;53.672;10.064;2022-08-30T14:43:00;21.40;95.20
3275;DHT22;1649;53.672;10.064;2022-08-30T14:45:26;21.20;95.10
3275;DHT22;1649;53.672;10.064;2022-08-30T14:47:51;21.30;95.50
3275;DHT22;1649;53.672;10.064;2022-08-30T14:50:17;21.50;95.20
3275;DHT22;1649;53.672;10.064;2022-08-30T14:52:42;21.70;95.10
3275;DHT22;1649;53.672;10.064;2022-08-30T14:55:09;21.70;95.00
3275;DHT22;1649;53.672;10.064;2022-08-30T14:57:36;21.70;94.50
3275;DHT22;1649;53.672;10.064;2022-08-30T15:00:04;21.80;94.60
3275;DHT22;1649;53.672;10.064;2022-08-30T15:02:30;22.00;94.40
3275;DHT22;1649;53.672;10.064;2022-08-30T15:04:55;22.00;94.30
3275;DHT22;1649;53.672;10.064;2022-08-30T15:07:21;21.90;94.70
3275;DHT22;1649;53.672;10.064;2022-08-30T15:09:46;21.70;94.70
3275;DHT22;1649;53.672;10.064;2022-08-30T15:12:12;21.50;94.80
3275;DHT22;1649;53.672;10.064;2022-08-30T15:17:09;21.40;94.90
3275;DHT22;1649;53.672;10.064;2022-08-30T15:19:37;21.50;94.80
3275;DHT22;1649;53.672;10.064;2022-08-30T15:22:05;21.50;95.20
3275;DHT22;1649;53.672;10.064;2022-08-30T15:24:32;21.60;94.70
3275;DHT22;1649;53.672;10.064;2022-08-30T15:26:59;21.60;94.70
3275;DHT22;1649;53.672;10.064;2022-08-30T15:29:24;21.50;94.70
3275;DHT22;1649;53.672;10.064;2022-08-30T15:31:50;21.40;94.80
3275;DHT22;1649;53.672;10.064;2022-08-30T15:34:18;21.30;94.80
3275;DHT22;1649;53.672;10.064;2022-08-30T15:36:44;21.30;94.90
3275;DHT22;1649;53.672;10.064;2022-08-30T15:39:11;21.20;94.80
3275;DHT22;1649;53.672;10.064;2022-08-30T15:41:37;21.10;94.80
3275;DHT22;1649;53.672;10.064;2022-08-30T15:44:03;21.10;95.00
3275;DHT22;1649;53.672;10.064;2022-08-30T15:46:31;21.10;94.80
3275;DHT22;1649;53.672;10.064;2022-08-30T15:49:03;21.00;94.90
3275;DHT22;1649;53.672;10.064;2022-08-30T15:51:30;21.00;94.30
3275;DHT22;1649;53.672;10.064;2022-08-30T15:53:56;21.00;94.70
3275;DHT22;1649;53.672;10.064;2022-08-30T15:56:22;21.00;93.20
3275;DHT22;1649;53.672;10.064;2022-08-30T15:58:49;20.80;92.90
3275;DHT22;1649;53.672;10.064;2022-08-30T16:01:14;20.70;92.30
3275;DHT22;1649;53.672;10.064;2022-08-30T16:03:40;20.60;91.80
3275;DHT22;1649;53.672;10.064;2022-08-30T16:06:15;20.40;92.00
3275;DHT22;1649;53.672;10.064;2022-08-30T16:08:41;20.40;91.90
3275;DHT22;1649;53.672;10.064;2022-08-30T16:11:09;20.50;92.30
3275;DHT22;1649;53.672;10.064;2022-08-30T16:13:35;20.50;91.10
3275;DHT22;1649;53.672;10.064;2022-08-30T16:16:03;20.50;91.20
3275;DHT22;1649;53.672;10.064;2022-08-30T16:18:28;20.30;90.20
3275;DHT22;1649;53.672;10.064;2022-08-30T16:21:06;20.30;90.90
3275;DHT22;1649;53.672;10.064;2022-08-30T16:23:33;20.10;90.60
3275;DHT22;1649;53.672;10.064;2022-08-30T16:25:58;20.00;91.30
3275;DHT22;1649;53.672;10.064;2022-08-30T16:28:24;20.00;91.40
3275;DHT22;1649;53.672;10.064;2022-08-30T16:30:50;19.90;90.60
3275;DHT22;1649;53.672;10.064;2022-08-30T16:33:16;19.90;91.10
3275;DHT22;1649;53.672;10.064;2022-08-30T16:35:41;19.90;91.20
3275;DHT22;1649;53.672;10.064;2022-08-30T16:38:07;19.90;91.80
3275;DHT22;1649;53.672;10.064;2022-08-30T16:40:32;19.80;90.50
3275;DHT22;1649;53.672;10.064;2022-08-30T16:42:57;19.70;90.40
3275;DHT22;1649;53.672;10.064;2022-08-30T16:45:23;19.70;90.60
3275;DHT22;1649;53.672;10.064;2022-08-30T16:47:48;19.50;89.40
3275;DHT22;1649;53.672;10.064;2022-08-30T16:50:14;19.60;90.60
3275;DHT22;1649;53.672;10.064;2022-08-30T16:52:42;19.50;89.90
3275;DHT22;1649;53.672;10.064;2022-08-30T16:55:08;19.40;88.60
3275;DHT22;1649;53.672;10.064;2022-08-30T16:57:33;19.30;88.10
3275;DHT22;1649;53.672;10.064;2022-08-30T16:59:59;19.20;89.60
3275;DHT22;1649;53.672;10.064;2022-08-30T17:02:25;19.10;88.90